Time;durP1;ratioP1;P1;durP2;ratioP2;P2;SDS_P1;SDS_P2;PMS_P1;PMS_P2;Temp;Humidity;BMP_temperature;BMP_pressure;BME280_temperature;BME280_humidity;BME280_pressure;Samples;Min_cycle;Max_cycle;Signal;HPM_P1;HPM_P2
2022/07/26 13:07:22;;;;;;;9.80;5.25;;;;;;;;;;1728461;81;22760;-94
2022/07/26 13:09:48;;;;;;;9.03;5.85;;;;;;;;;;1698326;83;21063;-95
2022/07/26 13:12:14;;;;;;;9.60;5.30;;;;;;;;;;1664793;84;21321;-95
2022/07/26 13:14:41;;;;;;;16.37;5.47;;;;;;;;;;1696683;84;21168;-93
2022/07/26 13:17:08;;;;;;;9.80;5.42;;;;;;;;;;1696661;84;21693;-91
2022/07/26 13:19:34;;;;;;;15.13;5.72;;;;;;;;;;1696678;84;20981;-93
2022/07/26 13:22:01;;;;;;;13.22;5.47;;;;;;;;;;1696565;84;21075;-94
2022/07/26 13:24:28;;;;;;;9.28;5.80;;;;;;;;;;1696617;83;21101;-93
2022/07/26 13:26:54;;;;;;;10.72;5.97;;;;;;;;;;1696631;84;21051;-93
2022/07/26 13:29:19;;;;;;;10.28;5.60;;;;;;;;;;1696735;84;20983;-93
2022/07/26 13:31:45;;;;;;;11.85;6.35;;;;;;;;;;1696526;84;21011;-92
2022/07/26 13:34:11;;;;;;;11.35;5.95;;;;;;;;;;1696571;84;21091;-92
2022/07/26 13:36:38;;;;;;;9.35;5.60;;;;;;;;;;1696502;84;21267;-91
2022/07/26 13:39:04;;;;;;;11.57;5.40;;;;;;;;;;1696430;84;21518;-91
2022/07/26 13:41:30;;;;;;;9.08;5.37;;;;;;;;;;1696255;84;21025;-90
2022/07/26 13:43:57;;;;;;;11.25;5.20;;;;;;;;;;1696534;84;21498;-90
2022/07/26 13:46:23;;;;;;;8.50;5.40;;;;;;;;;;1696476;84;21022;-91
2022/07/26 13:48:49;;;;;;;12.65;5.62;;;;;;;;;;1690163;84;21043;-89
2022/07/26 13:51:16;;;;;;;8.00;4.90;;;;;;;;;;1696381;84;21015;-89
2022/07/26 13:53:42;;;;;;;7.62;4.65;;;;;;;;;;1696238;84;21047;-89
2022/07/26 13:56:08;;;;;;;12.55;5.47;;;;;;;;;;1664523;84;20907;-88
2022/07/26 13:58:34;;;;;;;11.50;5.58;;;;;;;;;;1696583;84;20873;-89
2022/07/26 14:01:01;;;;;;;14.20;5.90;;;;;;;;;;1696455;84;21088;-88
2022/07/26 14:03:27;;;;;;;9.50;4.95;;;;;;;;;;1696346;84;21015;-88
2022/07/26 14:05:53;;;;;;;10.60;5.05;;;;;;;;;;1694984;83;20885;-88
2022/07/26 14:08:18;;;;;;;11.45;5.40;;;;;;;;;;1695679;84;21733;-88
2022/07/26 14:10:44;;;;;;;9.63;5.20;;;;;;;;;;1696048;84;21231;-88
2022/07/26 14:13:10;;;;;;;9.85;5.33;;;;;;;;;;1695991;84;21381;-89
2022/07/26 14:15:36;;;;;;;14.07;6.22;;;;;;;;;;1695817;84;21664;-90
2022/07/26 14:18:02;;;;;;;8.58;5.47;;;;;;;;;;1695820;84;20975;-90
2022/07/26 14:20:28;;;;;;;9.75;5.53;;;;;;;;;;1695973;84;21047;-89
2022/07/26 14:22:55;;;;;;;9.13;5.53;;;;;;;;;;1695730;84;21077;-91
2022/07/26 14:25:26;;;;;;;9.53;4.90;;;;;;;;;;1695916;84;21145;-90
2022/07/26 14:27:53;;;;;;;13.05;5.40;;;;;;;;;;1695843;84;21551;-91
2022/07/26 14:30:20;;;;;;;9.18;5.80;;;;;;;;;;1695784;84;21000;-91
2022/07/26 14:32:46;;;;;;;13.48;6.17;;;;;;;;;;1694764;84;21059;-91
2022/07/26 14:35:15;;;;;;;8.85;5.20;;;;;;;;;;1695588;84;21012;-89
2022/07/26 14:37:40;;;;;;;8.55;5.20;;;;;;;;;;1695750;84;21574;-90
2022/07/26 14:40:07;;;;;;;10.23;4.78;;;;;;;;;;1695859;84;20904;-90
2022/07/26 14:42:33;;;;;;;6.85;4.67;;;;;;;;;;1695842;84;20952;-91
2022/07/26 14:44:59;;;;;;;8.98;5.20;;;;;;;;;;1695897;84;20841;-91
2022/07/26 14:47:24;;;;;;;8.85;5.00;;;;;;;;;;1695948;84;21002;-91
2022/07/26 14:49:50;;;;;;;10.13;5.83;;;;;;;;;;1695752;84;21177;-91
2022/07/26 14:52:16;;;;;;;13.58;5.00;;;;;;;;;;1695738;84;20967;-91
2022/07/26 14:54:42;;;;;;;6.75;4.00;;;;;;;;;;1695838;84;20975;-91
2022/07/26 14:57:07;;;;;;;13.58;4.20;;;;;;;;;;1695910;84;20886;-91
2022/07/26 14:59:33;;;;;;;7.67;4.00;;;;;;;;;;1695889;84;20896;-92
2022/07/26 15:01:59;;;;;;;7.08;4.12;;;;;;;;;;1696114;84;21756;-92
2022/07/26 15:04:25;;;;;;;5.53;3.72;;;;;;;;;;1696021;84;20967;-91
2022/07/26 15:06:50;;;;;;;6.47;4.00;;;;;;;;;;1695544;83;20932;-92
2022/07/26 15:09:16;;;;;;;6.28;3.62;;;;;;;;;;1696068;84;21010;-91
2022/07/26 15:11:42;;;;;;;6.08;3.72;;;;;;;;;;1695966;83;21115;-90
2022/07/26 15:14:07;;;;;;;6.87;3.27;;;;;;;;;;1696001;84;21137;-92
2022/07/26 15:16:33;;;;;;;7.20;3.50;;;;;;;;;;1695688;84;20860;-90
2022/07/26 15:18:59;;;;;;;9.03;3.45;;;;;;;;;;1696043;84;20912;-90
2022/07/26 15:21:24;;;;;;;5.53;3.45;;;;;;;;;;1695893;84;21203;-91
2022/07/26 15:23:50;;;;;;;5.67;3.90;;;;;;;;;;1695995;84;20869;-91
2022/07/26 15:26:16;;;;;;;6.40;3.77;;;;;;;;;;1695945;84;21078;-90
2022/07/26 15:28:42;;;;;;;5.95;3.70;;;;;;;;;;1696161;84;20817;-91
2022/07/26 15:31:09;;;;;;;4.87;3.40;;;;;;;;;;1695878;84;20971;-91
2022/07/26 15:33:35;;;;;;;6.22;4.28;;;;;;;;;;1695848;84;21008;-92
2022/07/26 15:36:00;;;;;;;6.47;4.10;;;;;;;;;;1695741;84;20908;-91
2022/07/26 15:38:26;;;;;;;5.62;3.92;;;;;;;;;;1695819;84;20990;-90
2022/07/26 15:40:52;;;;;;;6.67;4.00;;;;;;;;;;1695701;84;21592;-87
2022/07/26 15:43:23;;;;;;;8.10;4.25;;;;;;;;;;1695968;84;20904;-88
2022/07/26 15:45:49;;;;;;;10.55;4.47;;;;;;;;;;1695779;84;20980;-89
2022/07/26 15:48:15;;;;;;;6.28;4.22;;;;;;;;;;1695683;84;20995;-87
2022/07/26 15:50:42;;;;;;;7.35;4.20;;;;;;;;;;1696013;84;21670;-89
2022/07/26 15:53:08;;;;;;;8.23;4.22;;;;;;;;;;1695847;84;21056;-89
2022/07/26 15:55:33;;;;;;;6.53;4.20;;;;;;;;;;1695795;84;20912;-89
2022/07/26 15:57:59;;;;;;;7.00;3.98;;;;;;;;;;1695865;84;20889;-88
2022/07/26 16:00:25;;;;;;;6.37;3.45;;;;;;;;;;1695922;84;21070;-87
2022/07/26 16:02:51;;;;;;;7.80;3.80;;;;;;;;;;1695742;84;21016;-87
2022/07/26 16:05:17;;;;;;;5.62;3.60;;;;;;;;;;1695795;84;21034;-86
2022/07/26 16:07:43;;;;;;;4.85;3.50;;;;;;;;;;1695556;83;20987;-86
2022/07/26 16:10:11;;;;;;;4.72;3.50;;;;;;;;;;1695832;84;20999;-86
2022/07/26 16:12:37;;;;;;;7.60;3.55;;;;;;;;;;1695907;84;21015;-86
2022/07/26 16:15:05;;;;;;;6.95;3.25;;;;;;;;;;1695900;84;22139;-86
2022/07/26 16:17:31;;;;;;;6.42;3.52;;;;;;;;;;1695713;84;21483;-86
2022/07/26 16:19:56;;;;;;;5.45;3.20;;;;;;;;;;1695981;84;20908;-87
2022/07/26 16:22:22;;;;;;;4.72;3.17;;;;;;;;;;1695729;84;20896;-86
2022/07/26 16:24:48;;;;;;;8.40;3.70;;;;;;;;;;1695717;84;20900;-86
2022/07/26 16:27:14;;;;;;;6.40;3.65;;;;;;;;;;1695774;84;21140;-86
2022/07/26 16:29:40;;;;;;;4.72;3.45;;;;;;;;;;1695698;84;20986;-87
2022/07/26 16:32:10;;;;;;;7.00;3.47;;;;;;;;;;1695460;84;20885;-86
2022/07/26 16:34:36;;;;;;;6.87;3.25;;;;;;;;;;1695992;84;21110;-85
2022/07/26 16:37:01;;;;;;;5.78;3.33;;;;;;;;;;1695874;84;20959;-85
2022/07/26 16:39:27;;;;;;;6.83;3.60;;;;;;;;;;1695981;84;21095;-85
2022/07/26 16:41:53;;;;;;;7.67;3.65;;;;;;;;;;1695791;84;21731;-85
2022/07/26 16:44:19;;;;;;;6.50;3.65;;;;;;;;;;1695851;84;20897;-85
2022/07/26 16:46:45;;;;;;;6.35;3.50;;;;;;;;;;1695344;84;21019;-88
2022/07/26 16:49:11;;;;;;;6.00;3.80;;;;;;;;;;1696063;84;20960;-88
2022/07/26 16:51:37;;;;;;;5.78;3.17;;;;;;;;;;1695606;84;21574;-87
2022/07/26 16:54:03;;;;;;;5.25;3.52;;;;;;;;;;1695949;84;20849;-87
2022/07/26 16:56:28;;;;;;;6.05;3.40;;;;;;;;;;1695885;84;20896;-87
2022/07/26 16:58:54;;;;;;;7.12;3.45;;;;;;;;;;1697520;84;20955;-87
2022/07/26 17:01:20;;;;;;;8.98;4.08;;;;;;;;;;1695787;83;20845;-87
2022/07/26 17:03:46;;;;;;;7.75;3.70;;;;;;;;;;1695992;84;21086;-87
2022/07/26 17:06:11;;;;;;;7.90;4.10;;;;;;;;;;1689428;83;21715;-85
2022/07/26 17:08:37;;;;;;;6.92;3.77;;;;;;;;;;1701435;83;20884;-85
2022/07/26 17:11:03;;;;;;;7.03;4.10;;;;;;;;;;1701407;84;21019;-85
2022/07/26 17:13:29;;;;;;;8.50;3.90;;;;;;;;;;1701483;83;20860;-84
2022/07/26 17:15:55;;;;;;;7.90;4.35;;;;;;;;;;1701343;83;21073;-85
2022/07/26 17:18:21;;;;;;;6.70;4.00;;;;;;;;;;1701460;83;20955;-85
2022/07/26 17:20:47;;;;;;;5.05;3.47;;;;;;;;;;1701255;83;20911;-85
2022/07/26 17:23:12;;;;;;;9.23;4.05;;;;;;;;;;1701521;84;20873;-85
2022/07/26 17:25:38;;;;;;;6.80;4.28;;;;;;;;;;1701199;83;20872;-84
2022/07/26 17:28:04;;;;;;;7.10;4.17;;;;;;;;;;1701410;84;21090;-84
2022/07/26 17:30:30;;;;;;;6.67;3.83;;;;;;;;;;1701247;83;21024;-84
2022/07/26 17:32:56;;;;;;;8.73;4.37;;;;;;;;;;1701416;84;20979;-85
2022/07/26 17:35:22;;;;;;;11.40;4.30;;;;;;;;;;1707117;83;20947;-84
2022/07/26 17:37:48;;;;;;;9.13;4.45;;;;;;;;;;1701496;84;20900;-85
2022/07/26 17:40:14;;;;;;;10.43;4.30;;;;;;;;;;1701478;84;21253;-85
2022/07/26 17:42:40;;;;;;;8.75;4.65;;;;;;;;;;1701229;84;21003;-84
2022/07/26 17:45:07;;;;;;;8.88;4.40;;;;;;;;;;1701447;83;20983;-84
2022/07/26 17:47:32;;;;;;;7.40;4.45;;;;;;;;;;1701494;84;20979;-84
2022/07/26 17:50:03;;;;;;;13.38;4.45;;;;;;;;;;1701600;84;20845;-84
2022/07/26 17:52:29;;;;;;;11.18;4.83;;;;;;;;;;1701405;84;21074;-84
2022/07/26 17:54:57;;;;;;;8.73;4.65;;;;;;;;;;1702144;83;21008;-85
2022/07/26 17:57:22;;;;;;;10.00;4.95;;;;;;;;;;1701039;84;21026;-84
2022/07/26 17:59:48;;;;;;;8.70;4.50;;;;;;;;;;1701454;84;20951;-84
2022/07/26 18:02:14;;;;;;;15.68;4.47;;;;;;;;;;1701593;84;21077;-84
2022/07/26 18:04:39;;;;;;;11.80;5.12;;;;;;;;;;1701586;84;21089;-84
2022/07/26 18:07:05;;;;;;;9.33;4.40;;;;;;;;;;1707272;83;20915;-86
2022/07/26 18:09:31;;;;;;;11.73;5.05;;;;;;;;;;1703993;83;20872;-87
2022/07/26 18:11:57;;;;;;;12.75;4.70;;;;;;;;;;1703679;84;20880;-86
2022/07/26 18:14:22;;;;;;;9.78;4.85;;;;;;;;;;1703742;83;21246;-86
2022/07/26 18:16:50;;;;;;;14.38;5.65;;;;;;;;;;1704125;84;21294;-86
2022/07/26 18:19:17;;;;;;;17.37;5.50;;;;;;;;;;1703746;84;21047;-86
2022/07/26 18:21:43;;;;;;;13.68;4.97;;;;;;;;;;1703411;84;21118;-87
2022/07/26 18:24:09;;;;;;;14.55;4.40;;;;;;;;;;1690187;84;21082;-87
2022/07/26 18:26:35;;;;;;;10.20;4.40;;;;;;;;;;1693823;84;20983;-86
2022/07/26 18:29:01;;;;;;;13.05;5.17;;;;;;;;;;1685374;84;21008;-86
2022/07/26 18:31:30;;;;;;;13.93;4.45;;;;;;;;;;1700165;84;20974;-86
2022/07/26 18:33:57;;;;;;;9.78;4.58;;;;;;;;;;1683788;83;21039;-87
2022/07/26 18:36:23;;;;;;;12.70;4.92;;;;;;;;;;1686338;84;21078;-86
2022/07/26 18:38:50;;;;;;;10.72;4.62;;;;;;;;;;1691942;84;21054;-86
2022/07/26 18:41:16;;;;;;;11.08;4.60;;;;;;;;;;1693454;84;21689;-85
2022/07/26 18:43:45;;;;;;;15.35;5.10;;;;;;;;;;1691842;84;20995;-86
2022/07/26 18:46:11;;;;;;;12.20;4.90;;;;;;;;;;1691576;84;21065;-85
2022/07/26 18:48:36;;;;;;;13.08;5.35;;;;;;;;;;1691813;84;20974;-85
2022/07/26 18:51:03;;;;;;;11.97;4.90;;;;;;;;;;1691890;84;20974;-85
2022/07/26 18:53:28;;;;;;;14.25;4.67;;;;;;;;;;1692069;84;21074;-85
2022/07/26 18:55:56;;;;;;;16.67;4.90;;;;;;;;;;1691661;84;20958;-86
2022/07/26 18:58:22;;;;;;;11.28;4.65;;;;;;;;;;1691612;84;21391;-86
2022/07/26 19:00:48;;;;;;;8.35;4.08;;;;;;;;;;1691640;84;21018;-86
2022/07/26 19:03:18;;;;;;;19.37;4.83;;;;;;;;;;1691888;84;21086;-85
2022/07/26 19:08:11;;;;;;;16.85;5.22;;;;;;;;;;1660909;86;21014;-86
2022/07/26 19:10:40;;;;;;;11.70;5.78;;;;;;;;;;1663348;86;21791;-86
2022/07/26 19:13:05;;;;;;;12.25;5.22;;;;;;;;;;1663631;86;21087;-85
2022/07/26 19:15:31;;;;;;;9.90;4.70;;;;;;;;;;1663727;86;21573;-86
2022/07/26 19:17:57;;;;;;;13.18;5.22;;;;;;;;;;1663641;86;21233;-85
2022/07/26 19:22:51;;;;;;;14.45;5.00;;;;;;;;;;1582107;89;21102;-86
2022/07/26 19:25:17;;;;;;;19.35;4.90;;;;;;;;;;1582349;89;21353;-85
2022/07/26 19:27:46;;;;;;;18.20;5.62;;;;;;;;;;1582482;89;21015;-85
2022/07/26 19:30:12;;;;;;;10.50;5.30;;;;;;;;;;1582157;89;21396;-85
2022/07/26 19:32:38;;;;;;;17.12;5.78;;;;;;;;;;1582306;89;20995;-86
2022/07/26 19:35:04;;;;;;;11.60;6.15;;;;;;;;;;1582369;90;20903;-86
2022/07/26 19:37:30;;;;;;;10.72;5.62;;;;;;;;;;1582282;89;21188;-85
2022/07/26 19:40:00;;;;;;;17.37;6.35;;;;;;;;;;1562379;89;21593;-85
2022/07/26 19:42:28;;;;;;;16.37;6.78;;;;;;;;;;1582150;89;21936;-85
2022/07/26 19:44:53;;;;;;;14.23;6.83;;;;;;;;;;1582708;89;21620;-85
2022/07/26 19:47:19;;;;;;;15.10;6.60;;;;;;;;;;1582415;90;21691;-86
2022/07/26 19:49:45;;;;;;;18.52;7.00;;;;;;;;;;1582194;90;20915;-85
2022/07/26 19:52:11;;;;;;;14.25;6.08;;;;;;;;;;1582254;89;21708;-85
2022/07/26 19:54:37;;;;;;;14.95;6.10;;;;;;;;;;1582464;89;21660;-86
2022/07/26 19:57:02;;;;;;;17.67;6.40;;;;;;;;;;1582276;89;20880;-86
2022/07/26 19:59:28;;;;;;;14.15;6.72;;;;;;;;;;1582466;89;21007;-85
2022/07/26 20:01:54;;;;;;;11.40;6.78;;;;;;;;;;1582436;89;21562;-86
2022/07/26 20:04:22;;;;;;;12.10;6.28;;;;;;;;;;1586956;89;20920;-85
2022/07/26 20:06:48;;;;;;;19.05;7.12;;;;;;;;;;1606038;87;21254;-86
2022/07/26 20:09:14;;;;;;;15.32;6.47;;;;;;;;;;1579444;88;21546;-85
2022/07/26 20:11:41;;;;;;;15.03;6.65;;;;;;;;;;1577399;90;20904;-85
2022/07/26 20:16:35;;;;;;;12.37;6.20;;;;;;;;;;1551593;91;21136;-84
2022/07/26 20:19:01;;;;;;;14.73;6.47;;;;;;;;;;1551874;90;21909;-84
2022/07/26 20:21:29;;;;;;;13.32;6.22;;;;;;;;;;1551686;89;20853;-85
2022/07/26 20:23:55;;;;;;;15.18;6.10;;;;;;;;;;1552048;90;21070;-84
2022/07/26 20:26:21;;;;;;;18.32;7.33;;;;;;;;;;1612067;86;21503;-86
2022/07/26 20:28:49;;;;;;;16.17;6.05;;;;;;;;;;1660001;85;21106;-86
2022/07/26 20:31:15;;;;;;;11.12;5.78;;;;;;;;;;1660125;85;21353;-86
2022/07/26 20:33:41;;;;;;;13.50;5.72;;;;;;;;;;1660136;85;20907;-86
2022/07/26 20:36:08;;;;;;;20.37;6.53;;;;;;;;;;1660175;86;20942;-85
2022/07/26 20:38:34;;;;;;;12.23;6.15;;;;;;;;;;1660237;86;21086;-85
2022/07/26 20:41:00;;;;;;;13.15;6.47;;;;;;;;;;1637400;86;20908;-85
2022/07/26 20:43:26;;;;;;;10.60;5.67;;;;;;;;;;1660576;85;21854;-85
2022/07/26 20:45:51;;;;;;;12.28;6.72;;;;;;;;;;1660274;85;20908;-86
2022/07/26 20:48:17;;;;;;;12.07;6.58;;;;;;;;;;1660241;85;21045;-86
2022/07/26 20:50:43;;;;;;;16.27;6.17;;;;;;;;;;1660260;85;20864;-85
2022/07/26 20:53:09;;;;;;;19.77;6.60;;;;;;;;;;1660419;85;21031;-85
2022/07/26 20:55:34;;;;;;;14.95;7.22;;;;;;;;;;1637796;86;21055;-85
2022/07/26 20:58:00;;;;;;;15.43;6.62;;;;;;;;;;1660236;85;20884;-85
2022/07/26 21:00:27;;;;;;;10.80;6.40;;;;;;;;;;1660273;85;21005;-85
2022/07/26 21:02:52;;;;;;;13.60;5.95;;;;;;;;;;1660072;85;20999;-86
2022/07/26 21:05:19;;;;;;;12.98;6.45;;;;;;;;;;1660289;85;21022;-85
2022/07/26 21:07:45;;;;;;;21.42;7.15;;;;;;;;;;1659950;85;21098;-86
2022/07/26 21:10:11;;;;;;;15.20;6.05;;;;;;;;;;1660108;85;21003;-85
2022/07/26 21:12:37;;;;;;;13.65;5.85;;;;;;;;;;1660237;85;21006;-85
2022/07/26 21:15:03;;;;;;;15.70;6.33;;;;;;;;;;1660354;86;20923;-85
2022/07/26 21:17:29;;;;;;;19.02;6.08;;;;;;;;;;1660173;85;21463;-85
2022/07/26 21:19:54;;;;;;;18.32;6.60;;;;;;;;;;1673314;85;21185;-85
2022/07/26 21:22:20;;;;;;;14.35;6.97;;;;;;;;;;1657385;85;20904;-85
2022/07/26 21:24:46;;;;;;;16.25;6.37;;;;;;;;;;1686815;85;20982;-85
2022/07/26 21:27:11;;;;;;;13.98;6.62;;;;;;;;;;1686849;85;20979;-85
2022/07/26 21:29:37;;;;;;;13.93;7.35;;;;;;;;;;1657483;85;20915;-85
2022/07/26 21:32:03;;;;;;;11.90;6.85;;;;;;;;;;1686747;85;21150;-85
2022/07/26 21:34:29;;;;;;;18.15;7.05;;;;;;;;;;1686820;85;21031;-86
2022/07/26 21:36:55;;;;;;;14.43;7.10;;;;;;;;;;1686762;85;21648;-85
2022/07/26 21:39:21;;;;;;;12.88;7.10;;;;;;;;;;1686883;85;20844;-85
2022/07/26 21:41:47;;;;;;;12.50;6.92;;;;;;;;;;1686800;85;20962;-85
2022/07/26 21:44:13;;;;;;;14.07;7.05;;;;;;;;;;1686530;85;21212;-86
2022/07/26 21:46:38;;;;;;;12.98;6.95;;;;;;;;;;1686607;84;20947;-86
2022/07/26 21:49:04;;;;;;;16.73;7.00;;;;;;;;;;1686829;84;20946;-85
2022/07/26 21:51:30;;;;;;;14.05;7.33;;;;;;;;;;1686893;85;20916;-85
2022/07/26 21:53:56;;;;;;;13.32;6.83;;;;;;;;;;1686804;85;21597;-85
2022/07/26 21:56:22;;;;;;;15.65;7.42;;;;;;;;;;1686770;85;21093;-85
2022/07/26 21:58:47;;;;;;;14.43;7.47;;;;;;;;;;1686691;85;21724;-85
2022/07/26 22:01:13;;;;;;;13.25;7.25;;;;;;;;;;1686661;85;20901;-85
2022/07/26 22:03:40;;;;;;;15.55;8.33;;;;;;;;;;1686859;85;20974;-85
2022/07/26 22:06:07;;;;;;;12.50;7.08;;;;;;;;;;1686663;85;21059;-85
2022/07/26 22:08:33;;;;;;;16.12;7.60;;;;;;;;;;1688984;84;21319;-85
2022/07/26 22:10:59;;;;;;;13.18;7.53;;;;;;;;;;1691914;84;20915;-85
2022/07/26 22:13:25;;;;;;;16.42;6.90;;;;;;;;;;1691962;84;20871;-85
2022/07/26 22:15:51;;;;;;;15.13;7.45;;;;;;;;;;1691865;84;20979;-84
2022/07/26 22:18:19;;;;;;;15.75;6.72;;;;;;;;;;1691975;84;20928;-85
2022/07/26 22:20:46;;;;;;;16.52;7.30;;;;;;;;;;1691925;84;21054;-85
2022/07/26 22:23:12;;;;;;;15.23;7.05;;;;;;;;;;1691692;84;21086;-85
2022/07/26 22:25:38;;;;;;;13.05;6.87;;;;;;;;;;1691896;84;20931;-85
2022/07/26 22:28:05;;;;;;;11.20;6.22;;;;;;;;;;1691947;84;21545;-85
2022/07/26 22:30:31;;;;;;;15.13;6.67;;;;;;;;;;1691918;84;21015;-85
2022/07/26 22:32:58;;;;;;;13.98;6.95;;;;;;;;;;1692053;84;21155;-85
2022/07/26 22:35:26;;;;;;;13.50;6.85;;;;;;;;;;1691954;84;21015;-85
2022/07/26 22:37:53;;;;;;;15.70;6.78;;;;;;;;;;1691703;84;21062;-85
2022/07/26 22:40:20;;;;;;;13.62;6.40;;;;;;;;;;1691815;84;21499;-85
2022/07/26 22:42:47;;;;;;;13.78;7.20;;;;;;;;;;1692077;84;21015;-85
2022/07/26 22:45:13;;;;;;;12.43;6.60;;;;;;;;;;1691577;84;21877;-85
2022/07/26 22:47:40;;;;;;;12.75;6.45;;;;;;;;;;1691803;84;20999;-85
2022/07/26 22:50:06;;;;;;;10.43;5.90;;;;;;;;;;1691932;84;21010;-85
2022/07/26 22:52:32;;;;;;;14.95;6.00;;;;;;;;;;1691814;84;21129;-85
2022/07/26 22:54:57;;;;;;;20.27;6.70;;;;;;;;;;1691935;84;21246;-85
2022/07/26 22:57:23;;;;;;;18.10;6.67;;;;;;;;;;1691828;84;21294;-85
2022/07/26 22:59:49;;;;;;;15.43;6.47;;;;;;;;;;1691886;84;22559;-84
2022/07/26 23:02:15;;;;;;;14.13;6.80;;;;;;;;;;1691833;84;21010;-85
2022/07/26 23:04:41;;;;;;;16.82;7.70;;;;;;;;;;1691893;84;21637;-85
2022/07/26 23:07:06;;;;;;;14.50;6.60;;;;;;;;;;1691687;84;20979;-85
2022/07/26 23:09:32;;;;;;;14.68;6.80;;;;;;;;;;1687972;84;21487;-85
2022/07/26 23:11:58;;;;;;;20.60;7.40;;;;;;;;;;1686531;85;20967;-84
2022/07/26 23:14:24;;;;;;;14.05;7.03;;;;;;;;;;1686443;85;20895;-85
2022/07/26 23:16:50;;;;;;;11.75;6.53;;;;;;;;;;1686604;85;20939;-85
2022/07/26 23:19:15;;;;;;;15.55;7.08;;;;;;;;;;1686806;84;21629;-84
2022/07/26 23:21:41;;;;;;;14.65;7.28;;;;;;;;;;1686393;85;21105;-85
2022/07/26 23:24:07;;;;;;;17.80;7.00;;;;;;;;;;1686519;85;21636;-85
2022/07/26 23:26:33;;;;;;;12.10;7.20;;;;;;;;;;1686116;85;20904;-85
2022/07/26 23:28:58;;;;;;;17.20;7.22;;;;;;;;;;1686566;85;20939;-85
2022/07/26 23:31:24;;;;;;;13.65;6.90;;;;;;;;;;1686561;85;20848;-85
2022/07/26 23:33:50;;;;;;;12.53;6.90;;;;;;;;;;1686653;85;20900;-85
2022/07/26 23:36:15;;;;;;;15.90;7.72;;;;;;;;;;1686573;85;20837;-85
2022/07/26 23:38:41;;;;;;;14.50;6.50;;;;;;;;;;1686787;85;21059;-85
2022/07/26 23:41:07;;;;;;;15.00;7.22;;;;;;;;;;1686575;84;20841;-85
2022/07/26 23:43:33;;;;;;;14.75;6.92;;;;;;;;;;1686730;85;21011;-85
2022/07/26 23:45:58;;;;;;;15.88;7.03;;;;;;;;;;1686808;85;21080;-85
2022/07/26 23:48:24;;;;;;;15.63;6.30;;;;;;;;;;1686645;85;20979;-85
2022/07/26 23:50:50;;;;;;;14.73;6.95;;;;;;;;;;1686838;85;20987;-85
2022/07/26 23:53:15;;;;;;;17.55;6.97;;;;;;;;;;1686695;85;20951;-85
2022/07/26 23:55:41;;;;;;;16.37;7.17;;;;;;;;;;1657135;85;21748;-85
2022/07/26 23:58:07;;;;;;;13.48;6.47;;;;;;;;;;1686592;85;21092;-85
